Maskinonge, Canada
Current Conditions -  °F | °C
As of 5:00 AM on Friday 21 Nov 2014 (Local Time) from CYRQ Reporting Station
Clear Clear  
Wind Chill: 13°   Ceiling: Unl
Heat Index: 19°   Visibility: 9mi
Dew Point: 10°   Wind: 5mph
Humidity: 68%   Direction: 270°W
Pressure: 29.89"   Gusts: NA
Location:  46.22°N, 73.02°W
Report Text: CYRQ 211000Z AUTO 27004KT 9SM CLR M07/M12 A2989 RMK SLP124
Loading
Personal Weather Stations






























Interactive Weather Map New forecast layout! Learn more

10-Day Weather Forecast

Advertisements
Track Severe Weather on mobile